createdAt,value
2022-08-05T00:00:21.546Z,1.50
2022-08-05T00:02:52.644Z,1.17
2022-08-05T00:06:02.632Z,1.27
2022-08-05T00:08:32.615Z,1.30
2022-08-05T00:11:03.844Z,1.40
2022-08-05T00:13:38.969Z,1.30
2022-08-05T00:16:12.518Z,1.40
2022-08-05T00:18:44.383Z,1.20
2022-08-05T00:21:15.178Z,1.40
2022-08-05T00:23:53.595Z,1.20
2022-08-05T00:26:35.281Z,1.50
2022-08-05T00:29:05.462Z,1.27
2022-08-05T00:31:54.309Z,1.45
2022-08-05T00:34:56.560Z,1.08
2022-08-05T00:37:16.447Z,1.27
2022-08-05T00:39:57.994Z,1.20
2022-08-05T00:42:34.122Z,1.30
2022-08-05T00:45:04.982Z,0.98
2022-08-05T00:47:56.746Z,1.40
2022-08-05T00:50:29.215Z,1.30
2022-08-05T00:52:59.570Z,1.23
2022-08-05T00:55:33.979Z,1.23
2022-08-05T00:58:19.179Z,1.48
2022-08-05T01:00:50.199Z,1.10
2022-08-05T01:03:22.674Z,1.20
2022-08-05T01:05:54.497Z,1.30
2022-08-05T01:08:40.188Z,1.10
2022-08-05T01:11:24.243Z,1.08
2022-08-05T01:14:08.452Z,1.30
2022-08-05T01:16:44.157Z,1.27
2022-08-05T01:19:18.629Z,1.30
2022-08-05T01:22:07.190Z,1.20
2022-08-05T01:24:49.766Z,1.15
2022-08-05T01:27:40.987Z,1.30
2022-08-05T01:30:20.908Z,1.05
2022-08-05T01:33:06.174Z,1.13
2022-08-05T01:35:52.213Z,1.40
2022-08-05T01:38:27.610Z,1.15
2022-08-05T01:41:01.454Z,1.27
2022-08-05T01:43:32.052Z,1.30
2022-08-05T01:46:07.254Z,1.20
2022-08-05T01:48:49.442Z,1.50
2022-08-05T01:51:20.328Z,1.20
2022-08-05T01:53:57.148Z,1.10
2022-08-05T01:58:09.430Z,1.27
2022-08-05T01:59:24.138Z,1.30
2022-08-05T02:01:56.653Z,1.20
2022-08-05T02:04:29.008Z,1.30
2022-08-05T02:07:00.641Z,1.20
2022-08-05T02:09:34.357Z,1.25
2022-08-05T02:12:05.783Z,1.20
2022-08-05T02:14:43.246Z,1.23
2022-08-05T02:18:15.187Z,1.15
2022-08-05T02:20:13.947Z,1.20
2022-08-05T02:22:51.017Z,1.20
2022-08-05T02:25:22.031Z,1.10
2022-08-05T02:27:58.479Z,1.20
2022-08-05T02:30:34.414Z,1.30
2022-08-05T02:33:04.683Z,1.35
2022-08-05T02:35:38.120Z,1.13
2022-08-05T02:38:21.198Z,1.40
2022-08-05T02:40:56.973Z,1.38
2022-08-05T02:43:27.084Z,1.33
2022-08-05T02:45:58.830Z,1.30
2022-08-05T02:48:31.334Z,1.17
2022-08-05T02:51:02.321Z,1.20
2022-08-05T02:53:39.110Z,1.13
2022-08-05T02:56:16.050Z,1.15
2022-08-05T02:58:51.606Z,1.15
2022-08-05T03:01:24.887Z,1.38
2022-08-05T03:04:03.329Z,1.20
2022-08-05T03:06:55.388Z,1.30
2022-08-05T03:09:37.460Z,1.40
2022-08-05T03:12:09.305Z,1.30
2022-08-05T03:14:46.001Z,1.30
2022-08-05T03:17:20.238Z,1.10
2022-08-05T03:19:52.032Z,1.40
2022-08-05T03:22:32.547Z,1.40
2022-08-05T03:25:32.879Z,1.13
2022-08-05T03:28:00.088Z,1.35
2022-08-05T03:30:34.227Z,1.30
2022-08-05T03:33:05.646Z,1.25
2022-08-05T03:35:41.225Z,1.17
2022-08-05T03:38:14.893Z,1.10
2022-08-05T03:40:47.524Z,1.33
2022-08-05T03:44:08.699Z,1.10
2022-08-05T03:46:12.611Z,1.25
2022-08-05T03:48:43.064Z,1.20
2022-08-05T03:52:39.423Z,1.20
2022-08-05T03:55:00.220Z,1.30
2022-08-05T03:57:16.531Z,1.20
2022-08-05T03:59:55.566Z,1.20
2022-08-05T04:02:37.849Z,1.20
2022-08-05T04:05:15.149Z,1.20
2022-08-05T04:07:51.475Z,1.23
2022-08-05T04:10:33.345Z,1.30
2022-08-05T04:13:09.187Z,1.17
2022-08-05T04:15:39.383Z,1.05
2022-08-05T04:18:29.412Z,1.40
2022-08-05T04:21:00.056Z,1.40
2022-08-05T04:24:04.817Z,1.17
2022-08-05T04:26:20.728Z,1.20
2022-08-05T04:28:51.957Z,1.20
2022-08-05T04:31:22.613Z,1.10
2022-08-05T04:34:31.746Z,1.15
2022-08-05T04:36:50.012Z,1.00
2022-08-05T04:39:21.737Z,1.33
2022-08-05T04:41:52.209Z,1.52
2022-08-05T04:44:29.435Z,1.00
2022-08-05T04:47:09.913Z,1.23
2022-08-05T04:50:02.701Z,1.20
2022-08-05T04:52:33.320Z,1.30
2022-08-05T04:55:14.371Z,1.23
2022-08-05T04:57:47.473Z,1.50
2022-08-05T05:00:18.515Z,1.30
2022-08-05T05:02:53.677Z,1.42
2022-08-05T05:05:28.597Z,1.20
2022-08-05T05:08:02.721Z,1.40
2022-08-05T05:10:33.761Z,1.40
2022-08-05T05:13:04.669Z,1.17
2022-08-05T05:15:59.105Z,1.40
2022-08-05T05:18:31.375Z,1.25
2022-08-05T05:21:05.517Z,1.13
2022-08-05T05:24:02.029Z,1.17
2022-08-05T05:26:28.872Z,1.20
2022-08-05T05:29:14.243Z,1.10
2022-08-05T05:31:46.494Z,1.50
2022-08-05T05:34:20.020Z,1.30
2022-08-05T05:36:54.642Z,1.30
2022-08-05T05:39:24.815Z,1.33
2022-08-05T05:42:01.840Z,1.30
2022-08-05T05:44:36.229Z,1.30
2022-08-05T05:47:13.216Z,1.13
2022-08-05T05:49:56.466Z,1.40
2022-08-05T05:52:29.934Z,1.13
2022-08-05T05:55:07.504Z,1.15
2022-08-05T05:57:52.539Z,1.20
2022-08-05T06:00:31.343Z,1.42
2022-08-05T06:03:39.738Z,1.10
2022-08-05T06:05:55.661Z,1.30
2022-08-05T06:08:32.521Z,1.05
2022-08-05T06:11:03.157Z,1.30
2022-08-05T06:13:40.763Z,1.10
2022-08-05T06:16:30.805Z,1.23
2022-08-05T06:19:05.706Z,1.10
2022-08-05T06:21:38.811Z,1.23
2022-08-05T06:24:14.761Z,1.15
2022-08-05T06:26:51.425Z,1.50
2022-08-05T06:29:25.378Z,1.13
2022-08-05T06:32:25.644Z,1.20
2022-08-05T06:37:55.818Z,1.20
2022-08-05T06:40:21.038Z,1.10
2022-08-05T06:42:52.711Z,1.30
2022-08-05T06:46:02.983Z,1.27
2022-08-05T06:48:53.027Z,1.40
2022-08-05T06:51:09.291Z,1.00
2022-08-05T06:53:40.599Z,1.25
2022-08-05T06:56:26.043Z,0.90
2022-08-05T06:58:57.374Z,1.45
2022-08-05T07:01:32.270Z,1.20
2022-08-05T07:04:03.812Z,1.20
2022-08-05T07:06:34.493Z,1.10
2022-08-05T07:09:04.910Z,0.90
2022-08-05T07:11:36.739Z,1.25
2022-08-05T07:14:29.675Z,1.30
2022-08-05T07:18:01.402Z,1.15
2022-08-05T07:20:31.759Z,1.30
2022-08-05T07:22:45.860Z,1.40
2022-08-05T07:25:55.552Z,1.23
2022-08-05T07:28:11.682Z,1.00
2022-08-05T07:30:52.953Z,1.20
2022-08-05T07:33:36.487Z,1.20
2022-08-05T07:36:20.146Z,1.40
2022-08-05T07:38:54.810Z,1.20
2022-08-05T07:42:07.173Z,1.13
2022-08-05T07:44:18.912Z,1.10
2022-08-05T07:46:50.439Z,1.20
2022-08-05T07:49:21.623Z,1.23
2022-08-05T07:51:54.523Z,1.23
2022-08-05T07:57:23.625Z,1.23
2022-08-05T07:59:53.545Z,1.20
2022-08-05T08:02:31.446Z,1.20
2022-08-05T08:05:20.312Z,0.90
2022-08-05T08:07:58.953Z,1.30
2022-08-05T08:10:30.789Z,0.95
2022-08-05T08:13:01.578Z,1.10
2022-08-05T08:16:33.949Z,1.08
2022-08-05T08:18:22.555Z,1.10
2022-08-05T08:21:03.094Z,1.10
2022-08-05T08:24:02.309Z,1.20
2022-08-05T08:26:26.745Z,1.02
2022-08-05T08:29:02.321Z,1.15
2022-08-05T08:31:54.831Z,1.10
2022-08-05T08:34:30.196Z,1.27
2022-08-05T08:37:05.083Z,1.17
2022-08-05T08:39:37.418Z,1.33
2022-08-05T08:42:27.553Z,1.00
2022-08-05T08:45:20.947Z,1.25
2022-08-05T08:48:06.619Z,0.90
2022-08-05T08:51:04.034Z,1.27
2022-08-05T08:53:44.984Z,1.20
2022-08-05T08:56:15.672Z,1.17
2022-08-05T08:58:47.912Z,1.20
2022-08-05T09:01:19.999Z,1.10
2022-08-05T09:03:57.247Z,1.20
2022-08-05T09:06:29.910Z,1.23
2022-08-05T09:09:02.057Z,1.20
2022-08-05T09:11:51.698Z,1.13
2022-08-05T09:14:56.433Z,1.10
2022-08-05T09:17:40.708Z,1.00
2022-08-05T09:20:06.674Z,0.90
2022-08-05T09:23:04.858Z,1.20
2022-08-05T09:26:03.234Z,1.05
2022-08-05T09:28:32.182Z,1.17
2022-08-05T09:31:44.110Z,0.90
2022-08-05T09:33:59.832Z,1.13
2022-08-05T09:36:45.814Z,0.90
2022-08-05T09:39:41.829Z,1.30
2022-08-05T09:42:24.142Z,1.20
2022-08-05T09:45:17.521Z,1.10
2022-08-05T09:47:56.035Z,1.10
2022-08-05T09:50:46.914Z,1.10
2022-08-05T09:53:25.777Z,1.10
2022-08-05T09:56:04.787Z,1.20
2022-08-05T09:58:42.454Z,1.10
2022-08-05T10:01:22.489Z,1.00
2022-08-05T10:04:10.446Z,1.10
2022-08-05T10:06:54.611Z,1.00
2022-08-05T10:09:29.516Z,1.02
2022-08-05T10:12:30.319Z,1.10
2022-08-05T10:15:20.663Z,1.10
2022-08-05T10:18:11.091Z,1.02
2022-08-05T10:20:41.694Z,1.10
2022-08-05T10:23:34.034Z,1.08
2022-08-05T10:26:07.042Z,0.95
2022-08-05T10:28:37.936Z,1.13
2022-08-05T10:32:52.385Z,1.20
2022-08-05T10:34:00.129Z,0.98
2022-08-05T10:36:31.110Z,1.10
2022-08-05T10:40:03.420Z,1.05
2022-08-05T10:42:22.793Z,1.10
2022-08-05T10:45:20.857Z,1.15
2022-08-05T10:48:29.681Z,0.98
2022-08-05T10:51:21.769Z,1.20
2022-08-05T10:53:52.855Z,1.30
2022-08-05T10:56:25.920Z,1.10
2022-08-05T10:58:56.179Z,1.17
2022-08-05T11:01:54.183Z,1.08
2022-08-05T11:04:30.992Z,1.10
2022-08-05T11:07:06.676Z,1.17
2022-08-05T11:09:47.153Z,1.00
2022-08-05T11:12:26.851Z,1.08
2022-08-05T11:15:21.495Z,1.00
2022-08-05T11:17:57.343Z,1.10
2022-08-05T11:20:41.567Z,1.10
2022-08-05T11:24:05.019Z,1.10
2022-08-05T11:26:32.496Z,1.00
2022-08-05T11:29:12.634Z,0.88
2022-08-05T11:31:58.871Z,1.05
2022-08-05T11:34:51.350Z,1.00
2022-08-05T11:38:28.479Z,1.00
2022-08-05T11:41:12.747Z,0.90
2022-08-05T11:44:08.395Z,1.00
2022-08-05T11:47:10.882Z,0.80
2022-08-05T11:49:36.008Z,1.20
2022-08-05T11:52:08.652Z,1.10
2022-08-05T11:54:43.639Z,0.90
2022-08-05T11:57:30.720Z,0.93
2022-08-05T12:00:27.605Z,0.95
2022-08-05T12:02:59.141Z,1.00
2022-08-05T12:05:36.158Z,0.93
2022-08-05T12:08:11.761Z,0.90
2022-08-05T12:10:48.736Z,0.90
2022-08-05T12:13:47.904Z,1.00
2022-08-05T12:16:14.567Z,0.80
2022-08-05T12:18:52.993Z,1.20
2022-08-05T12:21:30.611Z,1.10
2022-08-05T12:24:07.051Z,0.90
2022-08-05T12:26:44.493Z,0.98
2022-08-05T12:29:16.112Z,1.00
2022-08-05T12:31:53.107Z,1.10
2022-08-05T12:34:30.310Z,0.93
2022-08-05T12:37:08.559Z,0.90
2022-08-05T12:39:42.112Z,1.00
2022-08-05T12:42:15.372Z,0.98
2022-08-05T12:44:46.030Z,1.05
2022-08-05T12:47:31.046Z,1.00
2022-08-05T12:50:06.230Z,1.10
2022-08-05T12:52:42.211Z,1.05
2022-08-05T12:55:22.563Z,0.88
2022-08-05T12:58:50.147Z,1.00
2022-08-05T13:02:02.361Z,1.00
2022-08-05T13:03:42.080Z,1.00
2022-08-05T13:06:20.761Z,0.90
2022-08-05T13:08:52.102Z,1.05
2022-08-05T13:11:35.050Z,0.90
2022-08-05T13:14:14.803Z,1.00
2022-08-05T13:16:52.020Z,1.00
2022-08-05T13:19:22.824Z,0.90
2022-08-05T13:21:56.753Z,0.90
2022-08-05T13:24:27.699Z,1.00
2022-08-05T13:27:38.222Z,0.90
2022-08-05T13:30:35.674Z,1.00
2022-08-05T13:33:01.518Z,1.00
2022-08-05T13:35:47.005Z,1.00
2022-08-05T13:38:30.809Z,1.00
2022-08-05T13:41:04.979Z,1.00
2022-08-05T13:43:45.924Z,1.00
2022-08-05T13:46:44.027Z,0.90
2022-08-05T13:49:17.242Z,1.00
2022-08-05T13:51:47.374Z,1.00
2022-08-05T13:54:24.938Z,1.00
2022-08-05T13:56:55.900Z,1.10
2022-08-05T13:59:26.980Z,1.00
2022-08-05T14:02:00.102Z,1.25
2022-08-05T14:04:52.300Z,1.00
2022-08-05T14:08:00.498Z,0.80
2022-08-05T14:10:28.688Z,0.98
2022-08-05T14:12:59.743Z,0.80
2022-08-05T14:16:04.312Z,0.80
2022-08-05T14:18:23.281Z,0.88
2022-08-05T14:20:55.312Z,0.93
2022-08-05T14:23:26.639Z,0.80
2022-08-05T14:25:59.577Z,0.80
2022-08-05T14:28:30.821Z,1.02
2022-08-05T14:31:01.807Z,0.90
2022-08-05T14:33:59.132Z,1.10
2022-08-05T14:36:24.832Z,0.85
2022-08-05T14:38:56.579Z,1.00
2022-08-05T14:41:35.644Z,1.10
2022-08-05T14:44:09.614Z,0.80
2022-08-05T14:46:50.032Z,1.05
2022-08-05T14:49:20.274Z,0.73
2022-08-05T14:51:50.823Z,0.93
2022-08-05T14:54:28.021Z,0.70
2022-08-05T14:57:00.893Z,0.90
2022-08-05T14:59:36.001Z,0.95
2022-08-05T15:02:14.859Z,0.90
2022-08-05T15:04:47.925Z,1.00
2022-08-05T15:08:08.834Z,0.90
2022-08-05T15:10:10.339Z,0.90
2022-08-05T15:13:00.146Z,0.90
2022-08-05T15:15:55.678Z,0.98
2022-08-05T15:18:21.194Z,0.85
2022-08-05T15:20:51.460Z,0.98
2022-08-05T15:23:21.632Z,0.93
2022-08-05T15:25:56.608Z,0.90
2022-08-05T15:28:28.780Z,1.00
2022-08-05T15:30:59.939Z,0.80
2022-08-05T15:34:05.837Z,0.98
2022-08-05T15:36:25.675Z,0.90
2022-08-05T15:40:59.935Z,0.90
2022-08-05T15:41:57.873Z,0.93
2022-08-05T15:44:32.232Z,1.13
2022-08-05T15:47:05.520Z,0.90
2022-08-05T15:49:53.323Z,0.80
2022-08-05T15:52:29.593Z,0.90
2022-08-05T15:55:18.702Z,0.88
2022-08-05T15:57:49.233Z,1.02
2022-08-05T16:00:26.296Z,0.80
2022-08-05T16:05:33.266Z,0.98
2022-08-05T16:08:03.502Z,0.90
2022-08-05T16:10:35.137Z,0.85
2022-08-05T16:13:06.642Z,0.90
2022-08-05T16:15:37.683Z,0.88
2022-08-05T16:18:13.551Z,0.85
2022-08-05T16:20:44.555Z,0.90
2022-08-05T16:23:16.224Z,0.90
2022-08-05T16:25:47.837Z,0.90
2022-08-05T16:28:19.265Z,1.00
2022-08-05T16:30:50.275Z,1.08
2022-08-05T16:33:20.540Z,0.80
2022-08-05T16:35:53.012Z,0.90
2022-08-05T16:38:28.005Z,1.10
2022-08-05T16:41:00.335Z,0.95
2022-08-05T16:43:32.530Z,0.90
2022-08-05T16:46:12.952Z,0.80
2022-08-05T16:48:55.707Z,0.80
2022-08-05T16:51:30.804Z,1.00
2022-08-05T16:54:16.246Z,0.90
2022-08-05T16:56:47.802Z,1.10
2022-08-05T16:59:22.504Z,1.00
2022-08-05T17:01:55.570Z,1.00
2022-08-05T17:07:11.144Z,0.80
2022-08-05T17:09:57.844Z,0.90
2022-08-05T17:12:50.498Z,1.00
2022-08-05T17:15:21.538Z,1.00
2022-08-05T17:17:54.494Z,0.90
2022-08-05T17:20:26.606Z,0.90
2022-08-05T17:22:58.718Z,0.95
2022-08-05T17:25:39.304Z,1.00
2022-08-05T17:28:11.481Z,0.80
2022-08-05T17:30:50.575Z,0.95
2022-08-05T17:33:23.191Z,0.95
2022-08-05T17:36:08.050Z,0.90
2022-08-05T17:38:41.333Z,1.00
2022-08-05T17:42:16.723Z,0.80
2022-08-05T17:44:02.172Z,0.90
2022-08-05T17:46:33.689Z,0.80
2022-08-05T17:49:04.594Z,1.00
2022-08-05T17:51:40.514Z,0.90
2022-08-05T17:54:10.865Z,0.88
2022-08-05T17:56:41.316Z,1.02
2022-08-05T17:59:15.765Z,0.98
2022-08-05T18:01:51.470Z,0.93
2022-08-05T18:04:27.227Z,0.93
2022-08-05T18:07:00.287Z,0.80
2022-08-05T18:09:59.996Z,1.00
2022-08-05T18:12:24.414Z,0.80
2022-08-05T18:14:55.141Z,0.85
2022-08-05T18:18:00.750Z,0.88
2022-08-05T18:20:17.031Z,0.90
2022-08-05T18:22:54.857Z,0.95
2022-08-05T18:25:32.998Z,1.17
2022-08-05T18:28:05.276Z,0.93
2022-08-05T18:30:38.931Z,0.80
2022-08-05T18:33:13.459Z,0.90
2022-08-05T18:36:00.960Z,0.80
2022-08-05T18:38:37.768Z,1.00
2022-08-05T18:41:56.221Z,1.02
2022-08-05T18:44:06.370Z,0.95
2022-08-05T18:46:37.901Z,1.00
2022-08-05T18:49:30.799Z,0.80
2022-08-05T18:52:36.233Z,0.95
2022-08-05T18:55:10.639Z,0.80
2022-08-05T18:57:43.635Z,0.80
2022-08-05T19:00:27.232Z,0.93
2022-08-05T19:03:03.649Z,0.90
2022-08-05T19:06:11.483Z,0.85
2022-08-05T19:08:30.916Z,0.95
2022-08-05T19:11:04.821Z,1.10
2022-08-05T19:13:38.726Z,1.08
2022-08-05T19:16:25.366Z,0.90
2022-08-05T19:18:59.136Z,0.90
2022-08-05T19:21:34.588Z,0.90
2022-08-05T19:24:12.239Z,1.00
2022-08-05T19:26:43.917Z,0.93
2022-08-05T19:29:26.739Z,0.98
2022-08-05T19:32:11.250Z,1.00
2022-08-05T19:34:42.201Z,0.80
2022-08-05T19:37:35.182Z,0.80
2022-08-05T19:40:16.547Z,0.90
2022-08-05T19:43:04.597Z,1.00
2022-08-05T19:45:36.814Z,0.90
2022-08-05T19:48:07.645Z,0.80
2022-08-05T19:50:45.821Z,1.00
2022-08-05T19:53:15.919Z,0.80
2022-08-05T19:56:14.452Z,0.90
2022-08-05T19:58:57.306Z,1.00
2022-08-05T20:01:47.525Z,0.80
2022-08-05T20:04:17.773Z,0.93
2022-08-05T20:06:49.894Z,0.88
2022-08-05T20:09:19.995Z,0.90
2022-08-05T20:11:50.173Z,0.98
2022-08-05T20:14:27.138Z,0.80
2022-08-05T20:17:01.695Z,1.00
2022-08-05T20:19:36.270Z,0.88
2022-08-05T20:22:11.667Z,0.70
2022-08-05T20:24:42.313Z,0.90
2022-08-05T20:27:17.116Z,0.98
2022-08-05T20:29:57.902Z,1.00
2022-08-05T20:32:29.028Z,0.90
2022-08-05T20:34:59.975Z,0.82
2022-08-05T20:38:05.962Z,1.08
2022-08-05T20:40:20.978Z,0.90
2022-08-05T20:42:52.065Z,0.90
2022-08-05T20:45:22.665Z,0.90
2022-08-05T20:48:13.328Z,0.90
2022-08-05T20:50:47.498Z,1.00
2022-08-05T20:53:37.067Z,0.90
2022-08-05T20:56:09.351Z,0.82
2022-08-05T20:58:40.168Z,0.90
2022-08-05T21:01:11.332Z,1.00
2022-08-05T21:03:48.357Z,0.70
2022-08-05T21:06:27.636Z,0.90
2022-08-05T21:08:58.950Z,0.80
2022-08-05T21:12:06.832Z,0.80
2022-08-05T21:14:21.105Z,1.00
2022-08-05T21:16:56.959Z,0.90
2022-08-05T21:19:28.377Z,1.00
2022-08-05T21:21:59.482Z,1.10
2022-08-05T21:24:30.826Z,1.00
2022-08-05T21:27:01.091Z,0.90
2022-08-05T21:29:32.476Z,0.85
2022-08-05T21:32:10.552Z,0.70
2022-08-05T21:35:06.794Z,0.90
2022-08-05T21:37:41.211Z,0.80
2022-08-05T21:40:13.093Z,0.70
2022-08-05T21:42:45.294Z,0.80
2022-08-05T21:45:24.507Z,0.80
2022-08-05T21:47:57.941Z,0.85
2022-08-05T21:50:28.555Z,0.80
2022-08-05T21:53:04.851Z,0.82
2022-08-05T21:56:04.882Z,0.85
2022-08-05T21:58:36.932Z,0.95
2022-08-05T22:01:12.646Z,0.93
2022-08-05T22:03:55.472Z,0.80
2022-08-05T22:06:35.301Z,0.90
2022-08-05T22:09:15.182Z,0.90
2022-08-05T22:11:50.906Z,0.80
2022-08-05T22:14:35.532Z,1.00
2022-08-05T22:17:08.137Z,0.80
2022-08-05T22:20:02.074Z,0.90
2022-08-05T22:22:28.836Z,0.90
2022-08-05T22:25:27.597Z,0.90
2022-08-05T22:28:11.937Z,0.80
2022-08-05T22:30:55.784Z,0.85
2022-08-05T22:33:57.050Z,0.80
2022-08-05T22:36:18.670Z,0.70
2022-08-05T22:38:49.209Z,0.90
2022-08-05T22:42:04.834Z,1.00
2022-08-05T22:44:12.299Z,0.73
2022-08-05T22:46:42.832Z,0.70
2022-08-05T22:50:18.288Z,0.80
2022-08-05T22:52:15.394Z,0.70
2022-08-05T22:54:53.083Z,0.77
2022-08-05T22:57:23.640Z,0.98
2022-08-05T22:59:54.482Z,0.80
2022-08-05T23:02:29.776Z,0.80
2022-08-05T23:05:01.745Z,0.90
2022-08-05T23:07:45.484Z,0.90
2022-08-05T23:10:20.664Z,0.80
2022-08-05T23:12:55.581Z,0.88
2022-08-05T23:15:29.958Z,0.88
2022-08-05T23:18:06.017Z,1.00
2022-08-05T23:20:46.206Z,0.80
2022-08-05T23:23:16.374Z,0.90
2022-08-05T23:25:54.959Z,0.90
2022-08-05T23:28:28.923Z,1.00
2022-08-05T23:31:15.678Z,0.77
2022-08-05T23:34:04.476Z,0.90
2022-08-05T23:36:41.427Z,0.70
2022-08-05T23:39:32.220Z,0.80
2022-08-05T23:44:44.506Z,0.75
2022-08-05T23:47:15.580Z,0.90
2022-08-05T23:49:49.051Z,0.77
2022-08-05T23:52:28.458Z,0.85
2022-08-05T23:54:59.438Z,0.80
2022-08-05T23:57:29.580Z,0.60
